Spring Hill, KS

7:13 AM CST on February 14, 2016 (GMT -0600)
The Meadows | | Change Station
CLOSE
Current Station
Personal Weather Station
Location: Spring Hill, KS
Elevation: 1079 ft
Nearby Weather Stations
Active Advisory: Winter Weather Advisory

Elev 1079 ft 38.74 °N, 94.84 °W | Updated 1 second ago

Overcast
Overcast
23.9 °F
Feels Like 24 °F
N
0.0
Wind Variable Wind from SSE
Gusts 0.0 mph

Today
High -- | Low -- °F
--% Chance of Precip.
Yesterday
High -- | Low -- °F
Precip. -- in
Pressure 30.04 in
Visibility 10.0 miles
Clouds Clear
Windchill 24 °F
Dew Point 21 °F
Humidity 87%
Rainfall 0.00 in
Snow Depth Not available.
7:12 AM 5:55 PM
Waxing Crescent, 41% visible
METAR KIXD 141253Z 15004KT 10SM CLR M04/M08 A3000 RMK AO2 SLP173 T10441078 $
Pressure 30.04 in
Visibility 10.0 miles
Clouds Clear
Windchill 24 °F
Dew Point 21 °F
Humidity 87%
Rainfall 0.00 in
Snow Depth Not available.
7:12 AM 5:55 PM
Waxing Crescent, 41% visible
METAR KIXD 141253Z 15004KT 10SM CLR M04/M08 A3000 RMK AO2 SLP173 T10441078 $

10-Day Weather Forecast

Almanac

Astronomy

Feb. 14, 2016 Rise Set
Actual Time
Civil Twilight
Nautical Twilight
Astronomical Twilight
Moon
Length of Visible Light
Length of Day
Tomorrow will be .
, % of the Moon is Illuminated

Today's Extremes

State Highs State Lows

Community

WunderPhotos

Upload Photos

1,892,783 photos uploaded!

WunderBlog® & News

Nearby

Air Quality

  Air Quality AQ Index Pollutant
Not available.

Snow Depth

Station Depth Elevation

Earthquake Activity

City Distance Mag. Time & Date
Minimum magnitude displayed is 2.5.

Coastal Water Temperatures

Place Temperature

Stations

Nearby Weather Stations

Station Location Temp. Windchill Dew Point Humidity Wind Precip. Elev Updated Type
                   

Watches & Warnings

Winter Weather Advisory
Issued: 5:28 AM CST Feb. 14, 2016 – National Weather Service

... Winter Weather Advisory remains in effect until noon CST
today...

* timing... sleet and freezing rain early this morning will taper
off by late morning. Temperatures will rise above freezing
this afternoon.

* Main impact... light ice accumulation will cause hazardous
travel conditions this morning.

Precautionary/preparedness actions...

A Winter Weather Advisory for sleet and freezing rain means
periods of icing are imminent or occurring. Ice may cause driving
to become extremely dangerous... so be prepared to use caution
when traveling.